Darstellungsparameter: Aktuell verwendete Einstellungen:
Skalierung der Graphiken ... ?
xyx+y,   Skalierungsfaktor:      Skalierung: Modus: x, Faktor: 1
Darstellungszeitraum ... ?
Vom - - bis: - -   Zeitraum: 14.08.2006 - 14.08.2006
Min/Max/Avg-Anzeige ... ?
Zeige MMA aktuell
Zeige MMA Monat
Zeige MMA alles
Zeige --A aktuell
Zeige --A Monat
Zeige --A alles
Keine MMA-Anzeige
MMA:
Keine MMA-Graphiken
MMA-Basis: 14.08.2006 - 14.08.2006
Quicknavigation für Darstellung... ?
Tage:      1T, 2T, 3T, 5T -1T -2T -3T -5T +1T +2T +3T +5T
Wochen: 1W, 2W, 3W -1W -2W -3W +1W +2W +3W
Monate: 1M, 3M, 6M -1M -3M -6M +1M +3M +6M
Jahre:    1J, 3J, 5J, 10J -1J -3J -5J -10J +1J +3J +5J +10J
Nutze für die Darstellung ... ?
Originaldaten oder Mittelwerte auf ...
Stundenbasis Tagesbasis Wochenbasis
Monatsbasis Jahresbasis      Datenbasis: Original-Daten
Darstellen als:
Statistik (Auto) Statistik J:M      Darstellung:
Zur Graphik,    zurück zur Übersicht aller Sensoren.
 
Tabellarische Datenbersicht: ?
 
Sensor: Nr:Datum:Temp:Feuchte:Taupunkt:
Aussen-T/F 1 14-08-2006 00:04:02 12 C 89 % 10.25 C
2 14-08-2006 00:14:02 11.8 C 90 % 10.21 C
3 14-08-2006 00:24:03 11.8 C 90 % 10.21 C
4 14-08-2006 00:34:02 11.7 C 90 % 10.12 C
5 14-08-2006 00:44:02 11.5 C 89 % 9.75 C
6 14-08-2006 00:54:03 11.4 C 89 % 9.65 C
7 14-08-2006 01:04:03 11.3 C 89 % 9.55 C
8 14-08-2006 01:14:03 11.2 C 89 % 9.46 C
9 14-08-2006 01:24:03 11.1 C 89 % 9.36 C
10 14-08-2006 01:34:02 11 C 88 % 9.09 C
11 14-08-2006 01:44:02 11.1 C 89 % 9.36 C
12 14-08-2006 01:54:02 11 C 89 % 9.26 C
13 14-08-2006 02:04:02 10.8 C 90 % 9.23 C
14 14-08-2006 02:14:02 10.7 C 90 % 9.13 C
15 14-08-2006 02:24:02 10.7 C 90 % 9.13 C
16 14-08-2006 02:34:01 10.6 C 90 % 9.03 C
17 14-08-2006 02:44:01 10.5 C 90 % 8.93 C
18 14-08-2006 02:55:03 10.4 C 90 % 8.83 C
19 14-08-2006 03:05:03 10.5 C 90 % 8.93 C
20 14-08-2006 03:15:04 10.5 C 90 % 8.93 C
21 14-08-2006 03:25:04 10.3 C 90 % 8.73 C
22 14-08-2006 03:35:02 10.1 C 90 % 8.54 C
23 14-08-2006 03:45:02 10.2 C 90 % 8.64 C
24 14-08-2006 03:55:02 10.3 C 91 % 8.9 C
25 14-08-2006 04:05:02 10.1 C 92 % 8.86 C
Sensor: Nr:Datum:Temp:Feuchte:Taupunkt:
Aussen-T/F 26 14-08-2006 04:15:02 10.2 C 92 % 8.96 C
27 14-08-2006 04:25:02 10.2 C 92 % 8.96 C
28 14-08-2006 04:35:03 10.2 C 92 % 8.96 C
29 14-08-2006 04:45:02 10.2 C 92 % 8.96 C
30 14-08-2006 04:55:02 10.2 C 92 % 8.96 C
31 14-08-2006 05:05:03 10.1 C 92 % 8.86 C
32 14-08-2006 05:15:03 10.2 C 93 % 9.12 C
33 14-08-2006 05:25:03 10.2 C 93 % 9.12 C
34 14-08-2006 05:35:02 10.1 C 92 % 8.86 C
35 14-08-2006 05:45:02 10 C 92 % 8.76 C
36 14-08-2006 05:55:02 10 C 92 % 8.76 C
37 14-08-2006 06:05:02 10.1 C 92 % 8.86 C
38 14-08-2006 06:15:01 10.2 C 92 % 8.96 C
39 14-08-2006 06:25:01 10.2 C 92 % 8.96 C
40 14-08-2006 06:35:01 10.1 C 92 % 8.86 C
41 14-08-2006 06:45:02 10.3 C 92 % 9.06 C
42 14-08-2006 06:55:02 10.6 C 93 % 9.52 C
43 14-08-2006 07:05:02 10.9 C 93 % 9.81 C
44 14-08-2006 07:15:01 11.1 C 92 % 9.85 C
45 14-08-2006 07:25:01 11.2 C 92 % 9.95 C
46 14-08-2006 07:35:02 11.3 C 93 % 10.21 C
47 14-08-2006 07:45:02 11.5 C 92 % 10.25 C
48 14-08-2006 07:55:02 11.7 C 91 % 10.28 C
49 14-08-2006 08:05:02 11.8 C 91 % 10.38 C
50 14-08-2006 08:15:02 12 C 89 % 10.25 C
Sensor: Nr:Datum:Temp:Feuchte:Taupunkt:
Aussen-T/F 51 14-08-2006 08:25:02 12 C 88 % 10.08 C
52 14-08-2006 08:35:02 11.8 C 87 % 9.71 C
53 14-08-2006 08:45:02 12 C 86 % 9.73 C
54 14-08-2006 08:55:02 12.3 C 86 % 10.03 C
55 14-08-2006 09:05:02 12.6 C 84 % 9.97 C
56 14-08-2006 09:15:02 12.4 C 84 % 9.78 C
57 14-08-2006 09:25:02 12.7 C 85 % 10.25 C
58 14-08-2006 09:35:02 13 C 84 % 10.36 C
59 14-08-2006 09:45:02 13.4 C 83 % 10.57 C
60 14-08-2006 09:55:02 13.9 C 81 % 10.7 C
61 14-08-2006 10:05:02 14.3 C 80 % 10.9 C
62 14-08-2006 10:15:02 14.9 C 78 % 11.1 C
63 14-08-2006 10:25:02 15.7 C 73 % 10.88 C
64 14-08-2006 10:35:02 16.2 C 71 % 10.94 C
65 14-08-2006 10:45:02 16.4 C 68 % 10.48 C
66 14-08-2006 10:55:02 16.4 C 67 % 10.26 C
67 14-08-2006 11:05:02 16.3 C 67 % 10.17 C
68 14-08-2006 11:15:02 16.8 C 65 % 10.19 C
69 14-08-2006 11:25:02 17.9 C 59 % 9.78 C
70 14-08-2006 11:35:02 17.9 C 57 % 9.27 C
71 14-08-2006 11:45:03 18.7 C 54 % 9.21 C
72 14-08-2006 11:55:03 19 C 52 % 8.93 C
73 14-08-2006 12:05:02 19.9 C 50 % 9.18 C
74 14-08-2006 12:15:02 20 C 48 % 8.67 C
75 14-08-2006 12:25:02 19.8 C 49 % 8.79 C
Sensor: Nr:Datum:Temp:Feuchte:Taupunkt:
Aussen-T/F 76 14-08-2006 12:35:02 19.6 C 50 % 8.9 C
77 14-08-2006 12:45:02 19.1 C 52 % 9.02 C
78 14-08-2006 12:55:02 19 C 52 % 8.93 C
79 14-08-2006 13:05:01 19.4 C 52 % 9.3 C
80 14-08-2006 13:15:01 20 C 48 % 8.67 C
81 14-08-2006 13:25:01 21 C 45 % 8.62 C
82 14-08-2006 13:35:01 20.2 C 46 % 8.22 C
83 14-08-2006 13:45:02 18.4 C 57 % 9.74 C
84 14-08-2006 13:55:02 17 C 73 % 12.13 C
85 14-08-2006 14:05:01 16.5 C 83 % 13.6 C
86 14-08-2006 14:15:01 15.9 C 84 % 13.2 C
87 14-08-2006 14:25:01 16.4 C 86 % 14.05 C
88 14-08-2006 14:35:01 16.7 C 87 % 14.53 C
89 14-08-2006 14:45:02 16.9 C 88 % 14.9 C
90 14-08-2006 14:55:02 16.9 C 88 % 14.9 C
91 14-08-2006 15:05:01 17.2 C 86 % 14.84 C
92 14-08-2006 15:15:01 17.5 C 83 % 14.58 C
93 14-08-2006 15:25:01 18.6 C 78 % 14.69 C
94 14-08-2006 15:35:02 18.4 C 68 % 12.39 C
95 14-08-2006 15:45:02 18.6 C 72 % 13.46 C
96 14-08-2006 15:55:02 18.7 C 64 % 11.76 C
97 14-08-2006 16:05:02 18.8 C 68 % 12.77 C
98 14-08-2006 16:15:02 19.1 C 67 % 12.83 C
99 14-08-2006 16:25:02 20.1 C 62 % 12.6 C
100 14-08-2006 16:35:02 20.3 C 62 % 12.79 C
Sensor: Nr:Datum:Temp:Feuchte:Taupunkt:
Aussen-T/F 101 14-08-2006 16:45:01 19.8 C 59 % 11.56 C
102 14-08-2006 16:55:01 19.5 C 57 % 10.76 C
103 14-08-2006 17:05:02 18.7 C 45 % 6.54 C
104 14-08-2006 17:15:02 18.4 C 45 % 6.26 C
105 14-08-2006 17:25:02 17.9 C 47 % 6.44 C
106 14-08-2006 17:35:02 17.6 C 53 % 7.92 C
107 14-08-2006 17:45:02 17.6 C 52 % 7.64 C
108 14-08-2006 17:55:02 17.8 C 53 % 8.1 C
109 14-08-2006 18:05:03 18.1 C 53 % 8.38 C
110 14-08-2006 18:15:02 17.7 C 57 % 9.08 C
111 14-08-2006 18:25:02 17 C 66 % 10.61 C
112 14-08-2006 18:35:02 16 C 72 % 10.96 C
113 14-08-2006 18:45:02 15.8 C 75 % 11.38 C
114 14-08-2006 18:55:02 15.5 C 80 % 12.07 C
115 14-08-2006 19:05:02 15.3 C 79 % 11.68 C
116 14-08-2006 19:15:02 15.1 C 79 % 11.49 C
117 14-08-2006 19:25:02 14.8 C 81 % 11.57 C
118 14-08-2006 19:35:02 14.6 C 82 % 11.56 C
119 14-08-2006 19:45:02 14.5 C 82 % 11.47 C
120 14-08-2006 19:55:02 14.2 C 83 % 11.36 C
121 14-08-2006 20:05:02 14 C 83 % 11.16 C
122 14-08-2006 20:15:02 13.7 C 84 % 11.05 C
123 14-08-2006 20:25:02 13.4 C 85 % 10.93 C
124 14-08-2006 20:35:02 13.3 C 87 % 11.18 C
125 14-08-2006 20:45:02 13.2 C 87 % 11.09 C
Sensor: Nr:Datum:Temp:Feuchte:Taupunkt:
Aussen-T/F 126 14-08-2006 20:55:02 13.2 C 88 % 11.26 C
127 14-08-2006 21:05:02 13.2 C 88 % 11.26 C
128 14-08-2006 21:15:02 13.1 C 88 % 11.16 C
129 14-08-2006 21:25:02 13.1 C 87 % 10.99 C
130 14-08-2006 21:35:02 13.1 C 87 % 10.99 C
131 14-08-2006 21:45:01 13.1 C 87 % 10.99 C
132 14-08-2006 21:55:01 13.1 C 88 % 11.16 C
133 14-08-2006 22:05:02 13.1 C 88 % 11.16 C
134 14-08-2006 22:15:02 13.1 C 89 % 11.33 C
135 14-08-2006 22:25:02 13.2 C 88 % 11.26 C
136 14-08-2006 22:35:02 13.3 C 87 % 11.18 C
137 14-08-2006 22:45:02 13.3 C 87 % 11.18 C
138 14-08-2006 22:55:02 13.4 C 87 % 11.28 C
139 14-08-2006 23:05:02 13.4 C 87 % 11.28 C
140 14-08-2006 23:15:02 13.4 C 87 % 11.28 C
141 14-08-2006 23:25:02 13.5 C 86 % 11.21 C
142 14-08-2006 23:35:02 13.5 C 86 % 11.21 C
143 14-08-2006 23:45:02 13.5 C 86 % 11.21 C
144 14-08-2006 23:55:02 13.6 C 86 % 11.3 C

Legende:
   Min
   Max


Maximal/Minimal-Werte vom 14.08.2006 - 14.08.2006

Sensor Min Max Avg
Temp
(Aussen-T/F)
10 °C
14-08-2006  05:45:02
21 °C
14-08-2006  13:25:01
14.16 °C
Feuchte
(Aussen-T/F)
45 %
14-08-2006  13:25:01
93 %
14-08-2006  05:15:03
79.26 %
Taupunkt
(Aussen-T/F)
6.26 C
14-08-2006  17:15:02
14.9 C
14-08-2006  14:45:02
10.22 C

Die Daten stammen von einer Davis Vantage Pro 2 Wetter-Station und werden unter Linux mit der Software wview2wettercgi und aufbereitet. Alle Angaben erfolgen ohne Gewähr für ihre Vollständigkeit oder Richtigkeit.
Kontakt: Rainer Krienke krienke@uni-koblenz.de . Meine Webseiten an der Uni Koblenz oder privat.
Version: $Revision: 0.78 $